Terminal Aerodrome Forecast
Issued by NWS

Home | Current Version | Previous Version | Text Only | Print | Product List | Glossary On
Versions: 1 2 3 4 5 6 7 8 9 10 11 12 13 14 15 16 17 18 19 20 21 22 23 24 25 26 27
000
FTUS42 KTBW 210300 AAB
TAFLAL
TAF AMD
KLAL 210301Z 2103/2124 02010KT P6SM BKN025
     FM210600 01006KT P6SM SCT025 BKN250
     FM211400 02007KT P6SM SCT025 SCT250
     FM211700 02007KT P6SM SCT035 SCT250
      AMD NOT SKED TIL 211200=

USA.gov is the U.S. government's official web portal to all federal, state and local government web resources and services.